Terminal Aerodrome Forecast
Issued by NWS Albany, NY

Home | Current Version | Previous Version | Text Only | Print | Product List | Glossary On
Versions: 1 2 3 4 5 6 7 8 9 10 11 12 13 14 15 16 17 18 19 20
000
FTUS41 KALY 151129
TAFALB
TAF
KALB 151129Z 1512/1612 VRB03KT P6SM SCT200
     FM151800 18005KT P6SM BKN110
     FM160100 18005KT P6SM BKN030
     FM160500 20004KT P6SM BKN035=

USA.gov is the U.S. government's official web portal to all federal, state and local government web resources and services.